sensor_id;sensor_type;location;lat;lon;timestamp;pressure;altitude;pressure_sealevel;temperature;humidity
30339;BME280;795;49.296;11.348;2023-06-24T00:01:41;97290.50;;;14.70;100.00
30339;BME280;795;49.296;11.348;2023-06-24T00:04:08;97272.25;;;14.64;100.00
30339;BME280;795;49.296;11.348;2023-06-24T00:06:35;97329.47;;;14.92;100.00
30339;BME280;795;49.296;11.348;2023-06-24T00:09:06;97333.69;;;14.86;100.00
30339;BME280;795;49.296;11.348;2023-06-24T00:11:34;97334.34;;;14.88;100.00
30339;BME280;795;49.296;11.348;2023-06-24T00:14:01;97326.38;;;14.95;100.00
30339;BME280;795;49.296;11.348;2023-06-24T00:16:28;97312.94;;;14.79;100.00
30339;BME280;795;49.296;11.348;2023-06-24T00:18:56;97314.63;;;14.80;100.00
30339;BME280;795;49.296;11.348;2023-06-24T00:21:28;97304.16;;;14.77;100.00
30339;BME280;795;49.296;11.348;2023-06-24T00:24:00;97317.81;;;14.75;100.00
30339;BME280;795;49.296;11.348;2023-06-24T00:26:31;97312.28;;;14.60;100.00
30339;BME280;795;49.296;11.348;2023-06-24T00:28:59;97315.31;;;14.74;100.00
30339;BME280;795;49.296;11.348;2023-06-24T00:31:26;97266.72;;;14.41;100.00
30339;BME280;795;49.296;11.348;2023-06-24T00:33:53;97322.41;;;14.58;100.00
30339;BME280;795;49.296;11.348;2023-06-24T00:36:21;97313.31;;;14.51;100.00
30339;BME280;795;49.296;11.348;2023-06-24T00:38:48;97292.38;;;14.53;100.00
30339;BME280;795;49.296;11.348;2023-06-24T00:41:19;97309.25;;;14.63;100.00
30339;BME280;795;49.296;11.348;2023-06-24T00:43:46;97305.53;;;14.56;100.00
30339;BME280;795;49.296;11.348;2023-06-24T00:46:14;97303.19;;;14.53;100.00
30339;BME280;795;49.296;11.348;2023-06-24T00:48:42;97309.44;;;14.54;100.00
30339;BME280;795;49.296;11.348;2023-06-24T00:51:09;97286.34;;;14.43;100.00
30339;BME280;795;49.296;11.348;2023-06-24T00:53:37;97303.19;;;14.53;100.00
30339;BME280;795;49.296;11.348;2023-06-24T00:56:04;97227.09;;;14.02;100.00
30339;BME280;795;49.296;11.348;2023-06-24T00:58:35;97225.88;;;14.12;100.00
30339;BME280;795;49.296;11.348;2023-06-24T01:01:04;97308.38;;;14.71;100.00
30339;BME280;795;49.296;11.348;2023-06-24T01:03:32;97319.91;;;14.65;100.00
30339;BME280;795;49.296;11.348;2023-06-24T01:06:00;97319.38;;;14.53;100.00
30339;BME280;795;49.296;11.348;2023-06-24T01:08:27;97312.13;;;14.62;100.00
30339;BME280;795;49.296;11.348;2023-06-24T01:10:55;97314.31;;;14.67;100.00
30339;BME280;795;49.296;11.348;2023-06-24T01:13:22;97252.72;;;14.30;100.00
30339;BME280;795;49.296;11.348;2023-06-24T01:15:49;97301.78;;;14.66;100.00
30339;BME280;795;49.296;11.348;2023-06-24T01:18:52;97318.38;;;14.63;100.00
30339;BME280;795;49.296;11.348;2023-06-24T01:24:55;97261.50;;;14.08;100.00
30339;BME280;795;49.296;11.348;2023-06-24T01:31:42;97310.66;;;14.43;100.00
30339;BME280;795;49.296;11.348;2023-06-24T01:34:34;97317.06;;;14.42;100.00
30339;BME280;795;49.296;11.348;2023-06-24T01:37:20;97302.88;;;14.40;100.00
30339;BME280;795;49.296;11.348;2023-06-24T01:40:01;97310.47;;;14.29;100.00
30339;BME280;795;49.296;11.348;2023-06-24T01:42:46;97308.59;;;14.21;100.00
30339;BME280;795;49.296;11.348;2023-06-24T01:45:28;97224.25;;;13.71;100.00
30339;BME280;795;49.296;11.348;2023-06-24T01:48:13;97308.94;;;14.18;100.00
30339;BME280;795;49.296;11.348;2023-06-24T01:51:25;97299.16;;;14.09;100.00
30339;BME280;795;49.296;11.348;2023-06-24T01:54:11;97309.59;;;13.96;100.00
30339;BME280;795;49.296;11.348;2023-06-24T01:56:44;97302.34;;;13.80;100.00
30339;BME280;795;49.296;11.348;2023-06-24T01:59:14;97298.78;;;13.72;100.00
30339;BME280;795;49.296;11.348;2023-06-24T02:01:45;97295.53;;;13.52;100.00
30339;BME280;795;49.296;11.348;2023-06-24T02:04:15;97216.19;;;13.05;100.00
30339;BME280;795;49.296;11.348;2023-06-24T02:06:45;97278.63;;;13.26;100.00
30339;BME280;795;49.296;11.348;2023-06-24T02:09:18;97238.41;;;12.99;100.00
30339;BME280;795;49.296;11.348;2023-06-24T02:11:47;97246.75;;;13.13;100.00
30339;BME280;795;49.296;11.348;2023-06-24T02:14:19;97206.69;;;12.85;100.00
30339;BME280;795;49.296;11.348;2023-06-24T02:16:49;97263.88;;;13.04;100.00
30339;BME280;795;49.296;11.348;2023-06-24T02:19:30;97295.09;;;13.07;100.00
30339;BME280;795;49.296;11.348;2023-06-24T02:22:02;97295.38;;;13.04;100.00
30339;BME280;795;49.296;11.348;2023-06-24T02:24:31;97212.31;;;12.49;100.00
30339;BME280;795;49.296;11.348;2023-06-24T02:26:59;97233.25;;;12.63;100.00
30339;BME280;795;49.296;11.348;2023-06-24T02:29:28;97157.59;;;12.15;100.00
30339;BME280;795;49.296;11.348;2023-06-24T02:31:55;97291.47;;;12.90;100.00
30339;BME280;795;49.296;11.348;2023-06-24T02:34:26;97247.56;;;12.38;100.00
30339;BME280;795;49.296;11.348;2023-06-24T02:36:53;97218.38;;;12.26;100.00
30339;BME280;795;49.296;11.348;2023-06-24T02:39:20;97212.13;;;12.17;100.00
30339;BME280;795;49.296;11.348;2023-06-24T02:41:47;97281.00;;;12.53;100.00
30339;BME280;795;49.296;11.348;2023-06-24T02:44:16;97269.28;;;12.37;100.00
30339;BME280;795;49.296;11.348;2023-06-24T02:46:47;97239.81;;;12.10;100.00
30339;BME280;795;49.296;11.348;2023-06-24T02:49:17;97284.91;;;12.33;100.00
30339;BME280;795;49.296;11.348;2023-06-24T02:51:46;97283.34;;;12.23;100.00
30339;BME280;795;49.296;11.348;2023-06-24T02:54:14;97226.66;;;11.81;100.00
30339;BME280;795;49.296;11.348;2023-06-24T02:56:43;97284.44;;;11.94;100.00
30339;BME280;795;49.296;11.348;2023-06-24T02:59:11;97271.47;;;11.90;100.00
30339;BME280;795;49.296;11.348;2023-06-24T03:01:39;97232.50;;;11.59;100.00
30339;BME280;795;49.296;11.348;2023-06-24T03:04:07;97238.94;;;11.66;100.00
30339;BME280;795;49.296;11.348;2023-06-24T03:06:34;97171.19;;;11.19;100.00
30339;BME280;795;49.296;11.348;2023-06-24T03:09:04;97293.22;;;11.96;100.00
30339;BME280;795;49.296;11.348;2023-06-24T03:11:31;97317.19;;;12.08;100.00
30339;BME280;795;49.296;11.348;2023-06-24T03:13:59;97307.78;;;11.86;100.00
30339;BME280;795;49.296;11.348;2023-06-24T03:16:26;97308.16;;;11.91;100.00
30339;BME280;795;49.296;11.348;2023-06-24T03:18:53;97314.00;;;11.86;100.00
30339;BME280;795;49.296;11.348;2023-06-24T03:21:20;97294.00;;;11.71;100.00
30339;BME280;795;49.296;11.348;2023-06-24T03:23:47;97299.84;;;11.67;100.00
30339;BME280;795;49.296;11.348;2023-06-24T03:26:14;97249.88;;;11.29;100.00
30339;BME280;795;49.296;11.348;2023-06-24T03:28:41;97329.22;;;11.78;100.00
30339;BME280;795;49.296;11.348;2023-06-24T03:31:08;97301.06;;;11.55;100.00
30339;BME280;795;49.296;11.348;2023-06-24T03:33:35;97269.78;;;11.54;100.00
30339;BME280;795;49.296;11.348;2023-06-24T03:36:03;97317.59;;;11.77;100.00
30339;BME280;795;49.296;11.348;2023-06-24T03:38:30;97258.88;;;11.38;100.00
30339;BME280;795;49.296;11.348;2023-06-24T03:40:57;97363.47;;;12.11;100.00
30339;BME280;795;49.296;11.348;2023-06-24T03:43:24;97330.38;;;11.93;100.00
30339;BME280;795;49.296;11.348;2023-06-24T03:45:51;97341.72;;;11.87;100.00
30339;BME280;795;49.296;11.348;2023-06-24T03:48:18;97378.41;;;12.06;100.00
30339;BME280;795;49.296;11.348;2023-06-24T03:50:45;97327.97;;;11.72;100.00
30339;BME280;795;49.296;11.348;2023-06-24T03:53:12;97306.97;;;11.58;100.00
30339;BME280;795;49.296;11.348;2023-06-24T03:55:39;97379.56;;;12.03;100.00
30339;BME280;795;49.296;11.348;2023-06-24T03:58:06;97389.31;;;12.04;100.00
30339;BME280;795;49.296;11.348;2023-06-24T04:00:33;97350.81;;;11.86;100.00
30339;BME280;795;49.296;11.348;2023-06-24T04:03:00;97324.13;;;11.75;100.00
30339;BME280;795;49.296;11.348;2023-06-24T04:05:28;97355.47;;;12.02;100.00
30339;BME280;795;49.296;11.348;2023-06-24T04:07:55;97340.81;;;11.96;100.00
30339;BME280;795;49.296;11.348;2023-06-24T04:10:22;97348.22;;;11.94;100.00
30339;BME280;795;49.296;11.348;2023-06-24T04:12:49;97318.63;;;11.76;100.00
30339;BME280;795;49.296;11.348;2023-06-24T04:15:16;97396.06;;;12.26;100.00
30339;BME280;795;49.296;11.348;2023-06-24T04:17:44;97302.66;;;11.65;100.00
30339;BME280;795;49.296;11.348;2023-06-24T04:20:11;97342.44;;;11.89;100.00
30339;BME280;795;49.296;11.348;2023-06-24T04:22:41;97407.88;;;12.25;100.00
30339;BME280;795;49.296;11.348;2023-06-24T04:25:09;97354.66;;;12.01;100.00
30339;BME280;795;49.296;11.348;2023-06-24T04:27:36;97374.66;;;11.98;100.00
30339;BME280;795;49.296;11.348;2023-06-24T04:30:04;97373.88;;;12.06;100.00
30339;BME280;795;49.296;11.348;2023-06-24T04:32:31;97387.00;;;12.27;100.00
30339;BME280;795;49.296;11.348;2023-06-24T04:34:59;97416.06;;;12.58;100.00
30339;BME280;795;49.296;11.348;2023-06-24T04:37:27;97396.81;;;12.53;100.00
30339;BME280;795;49.296;11.348;2023-06-24T04:39:55;97376.59;;;12.49;100.00
30339;BME280;795;49.296;11.348;2023-06-24T04:42:22;97404.31;;;12.68;100.00
30339;BME280;795;49.296;11.348;2023-06-24T04:44:50;97368.91;;;12.62;100.00
30339;BME280;795;49.296;11.348;2023-06-24T04:47:19;97429.94;;;13.15;100.00
30339;BME280;795;49.296;11.348;2023-06-24T04:49:46;97380.41;;;12.90;100.00
30339;BME280;795;49.296;11.348;2023-06-24T04:52:14;97374.88;;;13.00;100.00
30339;BME280;795;49.296;11.348;2023-06-24T04:54:41;97399.44;;;13.22;100.00
30339;BME280;795;49.296;11.348;2023-06-24T04:57:31;97380.06;;;13.19;100.00
30339;BME280;795;49.296;11.348;2023-06-24T04:59:58;97384.97;;;13.23;100.00
30339;BME280;795;49.296;11.348;2023-06-24T05:02:25;97435.25;;;13.74;100.00
30339;BME280;795;49.296;11.348;2023-06-24T05:04:53;97379.19;;;13.44;100.00
30339;BME280;795;49.296;11.348;2023-06-24T05:07:20;97364.03;;;13.51;100.00
30339;BME280;795;49.296;11.348;2023-06-24T05:09:49;97433.78;;;13.96;100.00
30339;BME280;795;49.296;11.348;2023-06-24T05:12:17;97384.16;;;13.81;100.00
30339;BME280;795;49.296;11.348;2023-06-24T05:14:52;97303.97;;;13.49;100.00
30339;BME280;795;49.296;11.348;2023-06-24T05:17:20;97449.44;;;14.67;100.00
30339;BME280;795;49.296;11.348;2023-06-24T05:19:47;97449.44;;;14.83;100.00
30339;BME280;795;49.296;11.348;2023-06-24T05:22:15;97353.81;;;14.27;100.00
30339;BME280;795;49.296;11.348;2023-06-24T05:24:42;97346.75;;;14.34;100.00
30339;BME280;795;49.296;11.348;2023-06-24T05:27:09;97325.28;;;14.25;100.00
30339;BME280;795;49.296;11.348;2023-06-24T05:29:36;97346.97;;;14.41;100.00
30339;BME280;795;49.296;11.348;2023-06-24T05:32:03;97311.47;;;14.20;100.00
30339;BME280;795;49.296;11.348;2023-06-24T05:34:31;97313.97;;;14.29;100.00
30339;BME280;795;49.296;11.348;2023-06-24T05:36:58;97335.03;;;14.90;100.00
30339;BME280;795;49.296;11.348;2023-06-24T05:39:25;97357.81;;;15.51;100.00
30339;BME280;795;49.296;11.348;2023-06-24T05:41:52;97308.84;;;16.14;100.00
30339;BME280;795;49.296;11.348;2023-06-24T05:44:20;97341.59;;;17.01;100.00
30339;BME280;795;49.296;11.348;2023-06-24T05:46:47;97245.09;;;17.28;100.00
30339;BME280;795;49.296;11.348;2023-06-24T05:49:14;97332.00;;;18.00;100.00
30339;BME280;795;49.296;11.348;2023-06-24T05:51:41;97289.56;;;18.20;100.00
30339;BME280;795;49.296;11.348;2023-06-24T05:54:08;97250.06;;;18.45;100.00
30339;BME280;795;49.296;11.348;2023-06-24T05:56:35;97308.41;;;18.98;100.00
30339;BME280;795;49.296;11.348;2023-06-24T05:59:06;97334.31;;;19.56;100.00
30339;BME280;795;49.296;11.348;2023-06-24T06:01:33;97345.56;;;19.40;100.00
30339;BME280;795;49.296;11.348;2023-06-24T06:04:00;97348.72;;;19.91;100.00
30339;BME280;795;49.296;11.348;2023-06-24T06:06:27;97329.22;;;19.87;100.00
30339;BME280;795;49.296;11.348;2023-06-24T06:08:54;97345.00;;;20.11;100.00
30339;BME280;795;49.296;11.348;2023-06-24T06:11:21;97333.25;;;20.04;100.00
30339;BME280;795;49.296;11.348;2023-06-24T06:13:48;97318.22;;;20.28;100.00
30339;BME280;795;49.296;11.348;2023-06-24T06:16:15;97329.78;;;20.43;100.00
30339;BME280;795;49.296;11.348;2023-06-24T06:18:42;97323.28;;;20.50;100.00
30339;BME280;795;49.296;11.348;2023-06-24T06:21:09;97336.06;;;20.24;100.00
30339;BME280;795;49.296;11.348;2023-06-24T06:23:37;97297.66;;;20.97;100.00
30339;BME280;795;49.296;11.348;2023-06-24T06:26:05;97344.22;;;21.48;100.00
30339;BME280;795;49.296;11.348;2023-06-24T06:28:32;97335.00;;;21.30;100.00
30339;BME280;795;49.296;11.348;2023-06-24T06:31:00;97309.97;;;21.39;99.90
30339;BME280;795;49.296;11.348;2023-06-24T06:33:27;97326.66;;;21.11;99.50
30339;BME280;795;49.296;11.348;2023-06-24T06:35:53;97257.75;;;20.96;98.29
30339;BME280;795;49.296;11.348;2023-06-24T06:38:20;97274.91;;;21.30;93.63
30339;BME280;795;49.296;11.348;2023-06-24T06:40:47;97320.50;;;21.93;91.49
30339;BME280;795;49.296;11.348;2023-06-24T06:43:15;97327.41;;;22.33;86.02
30339;BME280;795;49.296;11.348;2023-06-24T06:45:42;97284.16;;;21.86;88.80
30339;BME280;795;49.296;11.348;2023-06-24T06:48:09;97262.31;;;21.73;85.96
30339;BME280;795;49.296;11.348;2023-06-24T06:50:36;97318.22;;;21.90;84.36
30339;BME280;795;49.296;11.348;2023-06-24T06:53:03;97327.41;;;22.33;80.67
30339;BME280;795;49.296;11.348;2023-06-24T06:55:30;97346.38;;;22.35;81.16
30339;BME280;795;49.296;11.348;2023-06-24T06:57:57;97291.16;;;22.13;78.10
30339;BME280;795;49.296;11.348;2023-06-24T07:00:24;97269.84;;;22.22;77.06
30339;BME280;795;49.296;11.348;2023-06-24T07:02:51;97320.97;;;21.13;87.89
30339;BME280;795;49.296;11.348;2023-06-24T07:05:18;97322.91;;;21.70;82.47
30339;BME280;795;49.296;11.348;2023-06-24T07:07:46;97292.97;;;21.37;86.33
30339;BME280;795;49.296;11.348;2023-06-24T07:10:13;97264.38;;;21.40;80.95
30339;BME280;795;49.296;11.348;2023-06-24T07:12:40;97245.56;;;20.99;83.84
30339;BME280;795;49.296;11.348;2023-06-24T07:15:08;97325.28;;;21.47;85.44
30339;BME280;795;49.296;11.348;2023-06-24T07:17:39;97286.47;;;21.89;81.19
30339;BME280;795;49.296;11.348;2023-06-24T07:20:07;97325.81;;;22.57;77.43
30339;BME280;795;49.296;11.348;2023-06-24T07:22:34;97328.69;;;22.69;75.11
30339;BME280;795;49.296;11.348;2023-06-24T07:25:01;97320.91;;;22.66;76.48
30339;BME280;795;49.296;11.348;2023-06-24T07:27:29;97312.81;;;23.02;73.59
30339;BME280;795;49.296;11.348;2023-06-24T07:29:56;97320.13;;;23.08;73.19
30339;BME280;795;49.296;11.348;2023-06-24T07:32:23;97277.22;;;22.21;71.59
30339;BME280;795;49.296;11.348;2023-06-24T07:34:50;97275.53;;;22.20;74.66
30339;BME280;795;49.296;11.348;2023-06-24T07:37:17;97315.16;;;22.74;70.07
30339;BME280;795;49.296;11.348;2023-06-24T07:39:51;97270.13;;;22.38;71.59
30339;BME280;795;49.296;11.348;2023-06-24T07:42:18;97306.44;;;22.83;73.27
30339;BME280;795;49.296;11.348;2023-06-24T07:44:48;97250.13;;;23.12;67.56
30339;BME280;795;49.296;11.348;2023-06-24T07:47:17;97316.97;;;23.29;65.57
30339;BME280;795;49.296;11.348;2023-06-24T07:49:45;97244.97;;;22.79;67.66
30339;BME280;795;49.296;11.348;2023-06-24T07:52:12;97294.41;;;23.52;65.79
30339;BME280;795;49.296;11.348;2023-06-24T07:54:39;97284.31;;;23.28;67.21
30339;BME280;795;49.296;11.348;2023-06-24T07:57:06;97302.19;;;23.85;63.97
30339;BME280;795;49.296;11.348;2023-06-24T07:59:33;97284.41;;;24.05;62.77
30339;BME280;795;49.296;11.348;2023-06-24T08:04:02;97272.94;;;25.37;57.58
30339;BME280;795;49.296;11.348;2023-06-24T08:06:30;97322.31;;;25.55;56.19
30339;BME280;795;49.296;11.348;2023-06-24T08:08:57;97322.81;;;25.41;56.23
30339;BME280;795;49.296;11.348;2023-06-24T08:11:24;97277.72;;;24.01;59.87
30339;BME280;795;49.296;11.348;2023-06-24T08:13:51;97303.91;;;24.86;58.55
30339;BME280;795;49.296;11.348;2023-06-24T08:16:18;97300.16;;;25.74;56.27
30339;BME280;795;49.296;11.348;2023-06-24T08:18:47;97315.56;;;26.26;52.73
30339;BME280;795;49.296;11.348;2023-06-24T08:21:14;97290.19;;;25.21;53.84
30339;BME280;795;49.296;11.348;2023-06-24T08:23:41;97259.59;;;24.00;56.88
30339;BME280;795;49.296;11.348;2023-06-24T08:26:08;97332.66;;;24.13;60.64
30339;BME280;795;49.296;11.348;2023-06-24T08:28:46;97320.25;;;23.92;62.31
30339;BME280;795;49.296;11.348;2023-06-24T08:31:14;97317.97;;;23.89;64.02
30339;BME280;795;49.296;11.348;2023-06-24T08:33:44;97321.13;;;24.64;59.92
30339;BME280;795;49.296;11.348;2023-06-24T08:36:14;97330.78;;;25.65;57.40
30339;BME280;795;49.296;11.348;2023-06-24T08:38:41;97308.69;;;26.00;52.22
30339;BME280;795;49.296;11.348;2023-06-24T08:41:08;97333.03;;;25.80;52.61
30339;BME280;795;49.296;11.348;2023-06-24T08:43:35;97306.81;;;26.29;51.66
30339;BME280;795;49.296;11.348;2023-06-24T08:46:02;97341.84;;;27.07;50.35
30339;BME280;795;49.296;11.348;2023-06-24T08:48:30;97311.34;;;26.96;49.87
30339;BME280;795;49.296;11.348;2023-06-24T08:51:01;97305.06;;;26.68;48.81
30339;BME280;795;49.296;11.348;2023-06-24T08:53:29;97339.97;;;27.62;49.16
30339;BME280;795;49.296;11.348;2023-06-24T08:55:58;97332.13;;;27.37;49.17
30339;BME280;795;49.296;11.348;2023-06-24T08:58:26;97331.66;;;27.79;47.95
30339;BME280;795;49.296;11.348;2023-06-24T09:00:55;97335.88;;;27.64;47.15
30339;BME280;795;49.296;11.348;2023-06-24T09:03:22;97318.91;;;27.94;45.32
30339;BME280;795;49.296;11.348;2023-06-24T09:05:50;97280.69;;;27.26;46.16
30339;BME280;795;49.296;11.348;2023-06-24T09:08:16;97240.66;;;27.40;43.54
30339;BME280;795;49.296;11.348;2023-06-24T09:10:45;97315.84;;;27.52;44.78
30339;BME280;795;49.296;11.348;2023-06-24T09:13:12;97322.44;;;27.90;44.55
30339;BME280;795;49.296;11.348;2023-06-24T09:15:39;97282.88;;;28.81;42.82
30339;BME280;795;49.296;11.348;2023-06-24T09:18:07;97327.63;;;29.78;41.42
30339;BME280;795;49.296;11.348;2023-06-24T09:20:34;97273.22;;;30.14;40.54
30339;BME280;795;49.296;11.348;2023-06-24T09:23:06;97312.44;;;29.86;39.91
30339;BME280;795;49.296;11.348;2023-06-24T09:25:33;97317.50;;;30.09;39.55
30339;BME280;795;49.296;11.348;2023-06-24T09:28:02;97314.69;;;29.99;38.61
30339;BME280;795;49.296;11.348;2023-06-24T09:30:30;97255.59;;;29.26;36.93
30339;BME280;795;49.296;11.348;2023-06-24T09:32:57;97315.94;;;27.79;39.59
30339;BME280;795;49.296;11.348;2023-06-24T09:35:26;97315.38;;;26.89;41.45
30339;BME280;795;49.296;11.348;2023-06-24T09:37:57;97317.63;;;26.92;42.21
30339;BME280;795;49.296;11.348;2023-06-24T09:40:26;97312.94;;;28.24;40.38
30339;BME280;795;49.296;11.348;2023-06-24T09:42:58;97285.72;;;29.23;38.44
30339;BME280;795;49.296;11.348;2023-06-24T09:45:30;97311.19;;;28.40;39.33
30339;BME280;795;49.296;11.348;2023-06-24T09:47:57;97272.88;;;28.21;38.65
30339;BME280;795;49.296;11.348;2023-06-24T09:50:25;97236.75;;;26.70;41.00
30339;BME280;795;49.296;11.348;2023-06-24T09:52:56;97280.53;;;25.70;43.93
30339;BME280;795;49.296;11.348;2023-06-24T09:55:24;97294.50;;;26.48;42.59
30339;BME280;795;49.296;11.348;2023-06-24T09:57:54;97205.22;;;26.77;41.21
30339;BME280;795;49.296;11.348;2023-06-24T10:00:21;97301.06;;;29.87;36.40
30339;BME280;795;49.296;11.348;2023-06-24T10:02:53;97296.69;;;30.94;34.93
30339;BME280;795;49.296;11.348;2023-06-24T10:05:21;97275.84;;;30.51;35.26
30339;BME280;795;49.296;11.348;2023-06-24T10:07:48;97227.22;;;29.04;37.76
30339;BME280;795;49.296;11.348;2023-06-24T10:10:15;97253.59;;;30.31;35.98
30339;BME280;795;49.296;11.348;2023-06-24T10:12:43;97277.75;;;30.45;34.29
30339;BME280;795;49.296;11.348;2023-06-24T10:15:11;97249.91;;;29.48;35.38
30339;BME280;795;49.296;11.348;2023-06-24T10:17:38;97219.44;;;29.01;35.58
30339;BME280;795;49.296;11.348;2023-06-24T10:20:06;97276.97;;;29.83;35.34
30339;BME280;795;49.296;11.348;2023-06-24T10:22:34;97278.97;;;31.00;32.63
30339;BME280;795;49.296;11.348;2023-06-24T10:25:06;97249.84;;;32.11;32.44
30339;BME280;795;49.296;11.348;2023-06-24T10:27:40;97263.44;;;32.18;32.06
30339;BME280;795;49.296;11.348;2023-06-24T10:30:18;97209.22;;;32.21;31.76
30339;BME280;795;49.296;11.348;2023-06-24T10:32:53;97260.56;;;32.82;32.44
30339;BME280;795;49.296;11.348;2023-06-24T10:35:23;97265.44;;;32.02;33.33
30339;BME280;795;49.296;11.348;2023-06-24T10:37:57;97262.59;;;32.12;32.53
30339;BME280;795;49.296;11.348;2023-06-24T10:40:41;97213.16;;;31.30;32.78
30339;BME280;795;49.296;11.348;2023-06-24T10:45:58;97256.88;;;32.87;30.76
30339;BME280;795;49.296;11.348;2023-06-24T10:48:26;97245.47;;;33.22;29.86
30339;BME280;795;49.296;11.348;2023-06-24T10:50:53;97212.97;;;33.41;28.47
30339;BME280;795;49.296;11.348;2023-06-24T10:53:22;97150.63;;;32.85;30.12
30339;BME280;795;49.296;11.348;2023-06-24T10:55:49;97212.97;;;33.41;29.82
30339;BME280;795;49.296;11.348;2023-06-24T10:58:16;97229.31;;;32.02;31.85
30339;BME280;795;49.296;11.348;2023-06-24T11:00:44;97191.25;;;29.51;34.33
30339;BME280;795;49.296;11.348;2023-06-24T11:03:16;97239.97;;;30.19;33.10
30339;BME280;795;49.296;11.348;2023-06-24T11:05:46;97218.44;;;32.11;31.16
30339;BME280;795;49.296;11.348;2023-06-24T11:08:15;97228.66;;;33.03;29.67
30339;BME280;795;49.296;11.348;2023-06-24T11:10:48;97216.44;;;33.80;28.88
30339;BME280;795;49.296;11.348;2023-06-24T11:13:20;97199.78;;;34.74;27.74
30339;BME280;795;49.296;11.348;2023-06-24T11:15:47;97215.72;;;35.24;27.17
30339;BME280;795;49.296;11.348;2023-06-24T11:18:14;97219.09;;;34.33;28.28
30339;BME280;795;49.296;11.348;2023-06-24T11:20:41;97214.75;;;34.03;28.25
30339;BME280;795;49.296;11.348;2023-06-24T11:23:13;97200.69;;;35.79;26.73
30339;BME280;795;49.296;11.348;2023-06-24T11:25:43;97174.44;;;35.21;27.54
30339;BME280;795;49.296;11.348;2023-06-24T11:28:24;97210.09;;;34.92;27.78
30339;BME280;795;49.296;11.348;2023-06-24T11:30:54;97168.56;;;32.30;29.42
30339;BME280;795;49.296;11.348;2023-06-24T11:33:30;97202.91;;;32.54;29.99
30339;BME280;795;49.296;11.348;2023-06-24T11:35:57;97186.78;;;32.85;29.56
30339;BME280;795;49.296;11.348;2023-06-24T11:38:24;97204.09;;;34.47;27.47
30339;BME280;795;49.296;11.348;2023-06-24T11:40:59;97195.19;;;35.15;26.62
30339;BME280;795;49.296;11.348;2023-06-24T11:43:27;97195.34;;;35.37;26.38
30339;BME280;795;49.296;11.348;2023-06-24T11:45:54;97191.19;;;35.21;27.08
30339;BME280;795;49.296;11.348;2023-06-24T11:48:21;97194.63;;;30.60;31.86
30339;BME280;795;49.296;11.348;2023-06-24T11:50:54;97197.34;;;30.25;32.87
30339;BME280;795;49.296;11.348;2023-06-24T11:53:41;97186.63;;;32.71;29.92
30339;BME280;795;49.296;11.348;2023-06-24T11:56:10;97183.84;;;34.42;27.25
30339;BME280;795;49.296;11.348;2023-06-24T11:58:37;97161.03;;;35.77;26.46
30339;BME280;795;49.296;11.348;2023-06-24T12:01:08;97182.03;;;36.02;25.73
30339;BME280;795;49.296;11.348;2023-06-24T12:03:35;97169.31;;;34.08;27.32
30339;BME280;795;49.296;11.348;2023-06-24T12:06:02;97166.69;;;32.64;29.61
30339;BME280;795;49.296;11.348;2023-06-24T12:08:29;97163.75;;;32.79;28.87
30339;BME280;795;49.296;11.348;2023-06-24T12:11:12;97162.97;;;32.73;28.84
30339;BME280;795;49.296;11.348;2023-06-24T12:13:39;97156.31;;;32.36;29.21
30339;BME280;795;49.296;11.348;2023-06-24T12:16:06;97152.72;;;32.69;30.12
30339;BME280;795;49.296;11.348;2023-06-24T12:18:33;97156.84;;;32.76;29.97
30339;BME280;795;49.296;11.348;2023-06-24T12:21:00;97172.13;;;30.27;32.41
30339;BME280;795;49.296;11.348;2023-06-24T12:23:27;97155.78;;;30.10;32.65
30339;BME280;795;49.296;11.348;2023-06-24T12:25:54;97154.78;;;32.14;29.92
30339;BME280;795;49.296;11.348;2023-06-24T12:28:21;97157.50;;;32.63;29.88
30339;BME280;795;49.296;11.348;2023-06-24T12:30:48;97165.53;;;32.99;28.59
30339;BME280;795;49.296;11.348;2023-06-24T12:33:15;97153.31;;;31.78;30.30
30339;BME280;795;49.296;11.348;2023-06-24T12:35:45;97164.75;;;29.65;33.01
30339;BME280;795;49.296;11.348;2023-06-24T12:38:13;97147.06;;;28.36;35.81
30339;BME280;795;49.296;11.348;2023-06-24T12:40:40;97147.22;;;26.51;37.86
30339;BME280;795;49.296;11.348;2023-06-24T12:43:06;97129.72;;;25.95;39.03
30339;BME280;795;49.296;11.348;2023-06-24T12:45:33;97076.91;;;26.65;37.70
30339;BME280;795;49.296;11.348;2023-06-24T12:48:00;97122.44;;;28.66;35.09
30339;BME280;795;49.296;11.348;2023-06-24T12:50:28;97119.88;;;31.34;30.47
30339;BME280;795;49.296;11.348;2023-06-24T12:52:59;97136.63;;;31.83;29.44
30339;BME280;795;49.296;11.348;2023-06-24T12:55:30;97107.97;;;32.65;29.38
30339;BME280;795;49.296;11.348;2023-06-24T12:57:58;97134.38;;;32.29;28.64
30339;BME280;795;49.296;11.348;2023-06-24T13:00:26;97136.28;;;32.72;27.35
30339;BME280;795;49.296;11.348;2023-06-24T13:02:53;97123.94;;;33.36;27.52
30339;BME280;795;49.296;11.348;2023-06-24T13:05:20;97125.31;;;32.57;28.80
30339;BME280;795;49.296;11.348;2023-06-24T13:07:47;97126.41;;;30.64;31.03
30339;BME280;795;49.296;11.348;2023-06-24T13:10:14;97129.69;;;28.40;34.38
30339;BME280;795;49.296;11.348;2023-06-24T13:12:41;97063.31;;;26.58;36.50
30339;BME280;795;49.296;11.348;2023-06-24T13:15:09;97094.66;;;28.46;34.10
30339;BME280;795;49.296;11.348;2023-06-24T13:17:36;96996.50;;;29.92;30.95
30339;BME280;795;49.296;11.348;2023-06-24T13:20:04;97126.78;;;32.78;28.23
30339;BME280;795;49.296;11.348;2023-06-24T13:22:31;97123.84;;;32.94;27.38
30339;BME280;795;49.296;11.348;2023-06-24T13:24:58;97109.63;;;34.78;26.12
30339;BME280;795;49.296;11.348;2023-06-24T13:27:25;97120.56;;;35.20;24.58